Marshfield, Wisconsin
Current Conditions -  °F | °C
As of 2:54 PM on Saturday 22 Nov 2014 (Local Time) from KMFI Reporting Station
Moderate Fog Moderate Fog  
Wind Chill: 31°   Ceiling: 200
Heat Index: 36°   Visibility: 0mi
Dew Point: 35°   Wind: 6mph
Humidity: 97%   Direction: 200°SSW
Pressure: 29.72"   Gusts: NA
Location:  44.67°N, 90.17°W
Report Text: KMFI 222054Z AUTO 20005KT M1/4SM FG VV002 02/02 A2972 RMK AO2 SLP079 T00220017 56013
Loading
Personal Weather Stations






























Interactive Weather Map New forecast layout! Learn more

10-Day Weather Forecast

Advertisements
Track Severe Weather on mobile